Time;durP1;ratioP1;P1;durP2;ratioP2;P2;SDS_P1;SDS_P2;PMS_P1;PMS_P2;Temp;Humidity;BMP_temperature;BMP_pressure;BME280_temperature;BME280_humidity;BME280_pressure;Samples;Min_cycle;Max_cycle;Signal;HPM_P1;HPM_P2
2022/12/29 00:01:33;;;;;;;17.17;10.18;;;10.00;99.90;;;;;;4986852;28;20365;-68
2022/12/29 00:03:59;;;;;;;19.42;10.23;;;10.00;99.90;;;;;;4986862;28;20045;-72
2022/12/29 00:06:25;;;;;;;16.63;10.27;;;10.00;99.90;;;;;;4987230;28;20048;-69
2022/12/29 00:08:50;;;;;;;17.08;10.18;;;9.90;99.90;;;;;;4985523;28;20293;-69
2022/12/29 00:11:22;;;;;;;17.83;10.07;;;10.00;99.90;;;;;;4985131;28;20060;-66
2022/12/29 00:16:33;;;;;;;15.95;9.70;;;10.00;99.90;;;;;;4984385;28;20045;-69
2022/12/29 00:18:59;;;;;;;17.52;10.25;;;10.00;99.90;;;;;;4988140;28;20045;-69
2022/12/29 00:35:31;;;;;;;15.10;8.73;;;10.00;99.90;;;;;;4986469;28;20204;-70
2022/12/29 00:46:14;;;;;;;13.30;8.40;;;10.10;99.90;;;;;;4984662;28;20096;-68
2022/12/29 00:51:24;;;;;;;13.32;8.63;;;10.20;99.90;;;;;;4977775;28;20096;-70
2022/12/29 00:53:50;;;;;;;13.45;8.25;;;10.20;99.90;;;;;;4982095;28;20480;-67
2022/12/29 00:56:15;;;;;;;14.00;8.55;;;10.10;99.90;;;;;;4983192;28;20034;-68
2022/12/29 00:58:41;;;;;;;14.40;8.88;;;10.10;99.90;;;;;;5003057;28;20125;-70
2022/12/29 01:01:08;;;;;;;14.75;8.52;;;10.10;99.90;;;;;;4979675;28;20301;-68
2022/12/29 01:03:35;;;;;;;15.32;8.35;;;10.00;99.90;;;;;;4984570;28;20034;-69
2022/12/29 01:06:02;;;;;;;16.10;7.97;;;10.10;99.90;;;;;;4987671;28;20405;-69
2022/12/29 01:08:28;;;;;;;14.32;8.27;;;10.10;99.90;;;;;;4984537;28;20512;-67
2022/12/29 01:11:02;;;;;;;14.63;8.52;;;10.10;99.90;;;;;;4986488;28;20037;-73
2022/12/29 01:13:27;;;;;;;14.63;7.75;;;10.20;99.90;;;;;;4972521;28;20039;-71
2022/12/29 01:15:55;;;;;;;14.18;7.63;;;10.10;99.90;;;;;;4990036;28;20053;-70
2022/12/29 01:18:21;;;;;;;16.08;7.47;;;10.10;99.90;;;;;;4985594;28;20614;-72
2022/12/29 01:20:47;;;;;;;13.90;8.13;;;10.10;99.90;;;;;;4985345;28;20048;-75
2022/12/29 01:23:13;;;;;;;12.45;7.03;;;10.10;99.90;;;;;;4986611;28;20403;-70
2022/12/29 01:25:38;;;;;;;12.05;7.00;;;10.10;99.90;;;;;;4989356;28;20046;-72
2022/12/29 01:28:04;;;;;;;13.35;7.00;;;10.10;99.90;;;;;;4991707;28;20488;-68
2022/12/29 01:30:30;;;;;;;11.73;7.22;;;10.10;99.90;;;;;;4988943;28;20064;-69
2022/12/29 01:32:55;;;;;;;13.82;6.55;;;10.20;99.90;;;;;;4988041;28;20053;-70
2022/12/29 01:35:21;;;;;;;11.20;6.80;;;10.20;99.90;;;;;;4989113;28;20042;-71
2022/12/29 01:37:47;;;;;;;11.50;7.40;;;10.20;99.90;;;;;;5008579;28;20140;-69
2022/12/29 01:40:12;;;;;;;11.52;6.40;;;10.20;99.90;;;;;;4975778;28;20378;-67
2022/12/29 01:42:38;;;;;;;12.02;6.68;;;10.20;99.90;;;;;;4988487;28;20034;-71
2022/12/29 01:45:10;;;;;;;11.80;7.22;;;10.10;99.90;;;;;;4989084;28;20038;-66
2022/12/29 01:47:41;;;;;;;12.93;6.97;;;10.20;99.90;;;;;;4995614;28;20038;-70
2022/12/29 01:50:16;;;;;;;13.57;7.10;;;10.20;99.90;;;;;;4990177;28;21551;-71
2022/12/29 01:52:56;;;;;;;13.15;6.78;;;10.20;99.90;;;;;;4988319;28;20084;-70
2022/12/29 01:55:22;;;;;;;12.98;6.50;;;10.10;99.90;;;;;;4984135;28;20045;-65
2022/12/29 01:57:51;;;;;;;13.18;6.60;;;10.20;99.90;;;;;;4987903;28;20056;-70
2022/12/29 02:00:16;;;;;;;12.25;6.53;;;10.30;99.90;;;;;;4991055;28;20048;-70
2022/12/29 02:02:46;;;;;;;13.35;6.78;;;10.20;99.90;;;;;;4987646;28;20042;-71
2022/12/29 02:05:39;;;;;;;10.68;5.88;;;10.20;99.90;;;;;;5003359;28;20500;-70
2022/12/29 02:08:05;;;;;;;10.38;6.03;;;10.20;99.90;;;;;;5005592;28;20571;-68
2022/12/29 02:10:34;;;;;;;15.43;6.25;;;10.20;99.90;;;;;;4983407;28;20546;-67
2022/12/29 02:13:00;;;;;;;11.13;5.88;;;10.30;99.90;;;;;;4989555;28;20225;-68
2022/12/29 02:16:12;;;;;;;12.70;6.10;;;10.30;99.90;;;;;;4988855;28;20038;-69
2022/12/29 02:18:52;;;;;;;13.25;5.95;;;10.20;99.90;;;;;;4959193;28;20050;-66
2022/12/29 02:21:47;;;;;;;11.75;6.07;;;10.30;99.90;;;;;;4990745;28;20120;-70
2022/12/29 02:24:24;;;;;;;17.75;6.50;;;10.20;99.90;;;;;;4988696;28;20042;-69
2022/12/29 02:27:15;;;;;;;13.90;6.22;;;10.20;99.90;;;;;;4990078;28;20083;-70
2022/12/29 02:30:10;;;;;;;10.02;5.20;;;10.20;99.90;;;;;;4972994;28;20378;-68
2022/12/29 02:32:45;;;;;;;10.95;5.80;;;10.30;99.90;;;;;;4983651;28;20046;-69
2022/12/29 02:35:40;;;;;;;12.25;5.97;;;10.20;99.90;;;;;;5001681;28;20166;-66
2022/12/29 02:38:17;;;;;;;11.07;5.55;;;10.30;99.90;;;;;;4988077;28;20380;-69
2022/12/29 02:40:56;;;;;;;10.98;5.38;;;10.30;99.90;;;;;;5002468;28;20113;-74
2022/12/29 02:43:46;;;;;;;8.75;5.25;;;10.20;99.90;;;;;;5001140;28;20049;-72
2022/12/29 02:46:37;;;;;;;7.63;4.65;;;10.20;99.90;;;;;;4984210;28;20397;-65
2022/12/29 02:49:09;;;;;;;9.18;4.28;;;10.20;99.90;;;;;;4987628;28;20041;-69
2022/12/29 02:51:38;;;;;;;;;;;10.30;99.90;;;;;;4983178;28;20058;-66
2022/12/29 02:56:49;;;;;;;6.70;3.70;;;10.30;99.90;;;;;;4985943;28;20053;-65
2022/12/29 02:59:15;;;;;;;6.18;3.53;;;10.20;99.90;;;;;;4986974;28;20128;-67
2022/12/29 03:02:17;;;;;;;5.32;3.63;;;10.30;99.90;;;;;;4981613;28;20041;-71
2022/12/29 03:05:10;;;;;;;8.07;3.50;;;10.20;99.90;;;;;;4985069;28;20089;-65
2022/12/29 03:07:57;;;;;;;8.90;3.65;;;10.20;99.90;;;;;;4985259;28;20058;-68
2022/12/29 03:10:47;;;;;;;7.63;4.00;;;10.20;99.90;;;;;;5001713;28;20158;-68
2022/12/29 03:16:32;;;;;;;5.97;3.80;;;10.20;99.90;;;;;;5001428;28;20181;-67
2022/12/29 03:19:14;;;;;;;9.05;4.00;;;10.20;99.90;;;;;;5001135;28;20037;-69
2022/12/29 03:24:46;;;;;;;8.00;3.80;;;10.30;99.90;;;;;;5000815;28;20889;-70
2022/12/29 03:27:16;;;;;;;7.25;4.20;;;10.30;99.90;;;;;;4983810;28;20804;-68
2022/12/29 03:29:52;;;;;;;6.90;4.10;;;10.30;99.90;;;;;;4987124;28;20064;-68
2022/12/29 03:32:20;;;;;;;7.60;4.05;;;10.30;99.90;;;;;;4980792;28;20088;-68
2022/12/29 03:34:47;;;;;;;6.18;3.65;;;10.20;99.90;;;;;;4987369;28;20060;-65
2022/12/29 03:37:16;;;;;;;7.82;3.90;;;10.20;99.90;;;;;;4982630;28;20046;-66
2022/12/29 03:39:42;;;;;;;10.90;4.40;;;10.30;99.90;;;;;;4984739;28;20435;-66
2022/12/29 03:42:18;;;;;;;8.07;3.90;;;10.20;99.90;;;;;;4983841;28;20366;-65
2022/12/29 03:44:45;;;;;;;11.88;4.25;;;10.30;99.90;;;;;;4984875;28;20034;-65
2022/12/29 03:47:12;;;;;;;9.52;3.78;;;10.30;99.90;;;;;;4985282;28;20037;-65
2022/12/29 03:49:38;;;;;;;11.35;4.18;;;10.30;99.90;;;;;;4985545;28;20662;-67
2022/12/29 03:52:04;;;;;;;11.15;3.65;;;10.30;99.90;;;;;;5000297;28;20139;-64
2022/12/29 03:54:31;;;;;;;10.60;4.40;;;10.30;99.90;;;;;;4986287;28;20037;-66
2022/12/29 03:56:56;;;;;;;10.95;4.10;;;10.20;99.90;;;;;;4983092;28;20045;-65
2022/12/29 03:59:22;;;;;;;14.40;4.32;;;10.10;99.90;;;;;;4985426;28;20042;-66
2022/12/29 04:01:48;;;;;;;16.27;4.30;;;10.10;99.90;;;;;;4980969;28;20076;-71
2022/12/29 04:04:13;;;;;;;9.95;3.65;;;10.00;99.90;;;;;;4985556;28;20585;-66
2022/12/29 04:06:39;;;;;;;10.25;3.70;;;10.00;99.90;;;;;;4983798;28;20500;-67
2022/12/29 04:09:05;;;;;;;12.52;3.58;;;9.90;99.90;;;;;;4983660;28;20042;-64
2022/12/29 04:11:31;;;;;;;6.90;2.90;;;9.90;99.90;;;;;;4991099;28;20089;-66
2022/12/29 04:13:56;;;;;;;6.75;2.78;;;9.90;99.90;;;;;;4985702;28;20594;-67
2022/12/29 04:16:22;;;;;;;5.38;2.70;;;9.80;99.90;;;;;;5000681;28;20038;-70
2022/12/29 04:18:47;;;;;;;8.00;2.83;;;9.90;99.90;;;;;;4978402;28;20047;-68
2022/12/29 04:21:13;;;;;;;9.15;3.03;;;9.80;99.90;;;;;;4985669;28;20034;-66
2022/12/29 04:23:39;;;;;;;7.22;3.70;;;9.90;99.90;;;;;;4984788;28;20042;-67
2022/12/29 04:26:07;;;;;;;10.52;3.45;;;9.80;99.90;;;;;;4984481;28;21737;-68
2022/12/29 04:28:32;;;;;;;7.18;2.83;;;9.70;99.90;;;;;;4982297;28;20046;-66
2022/12/29 04:30:58;;;;;;;12.82;3.20;;;9.70;99.90;;;;;;4983998;28;20046;-65
2022/12/29 04:33:24;;;;;;;9.93;3.00;;;9.70;99.90;;;;;;4982180;28;20033;-65
2022/12/29 04:35:52;;;;;;;14.70;3.78;;;9.60;99.90;;;;;;4985511;28;20165;-66
2022/12/29 04:38:17;;;;;;;8.93;2.80;;;9.70;99.90;;;;;;4982637;28;20049;-65
2022/12/29 04:40:43;;;;;;;14.40;2.90;;;9.70;99.90;;;;;;4983320;28;20034;-66
2022/12/29 04:43:09;;;;;;;13.93;3.40;;;9.80;99.90;;;;;;4979803;28;20679;-66
2022/12/29 04:45:35;;;;;;;12.90;2.45;;;9.80;99.90;;;;;;4997871;28;20168;-66
2022/12/29 04:48:01;;;;;;;11.80;2.70;;;9.80;99.90;;;;;;4994637;28;20129;-68
2022/12/29 04:50:27;;;;;;;11.95;2.55;;;9.80;99.90;;;;;;4984623;28;20110;-67
2022/12/29 04:52:53;;;;;;;17.58;2.85;;;9.80;99.90;;;;;;4999154;28;20041;-67
2022/12/29 04:55:18;;;;;;;14.55;2.40;;;9.80;99.90;;;;;;5002591;28;20041;-68
2022/12/29 04:57:44;;;;;;;15.52;2.20;;;9.80;99.90;;;;;;4981755;28;20104;-67
2022/12/29 05:00:10;;;;;;;17.15;2.33;;;9.80;99.90;;;;;;4999767;28;20648;-67
2022/12/29 05:02:37;;;;;;;14.18;2.22;;;9.70;99.90;;;;;;4982018;28;20067;-69
2022/12/29 05:05:03;;;;;;;10.88;2.00;;;9.70;99.90;;;;;;4984418;28;20034;-72
2022/12/29 05:07:29;;;;;;;20.83;2.80;;;9.60;99.90;;;;;;4983934;28;20030;-67
2022/12/29 05:09:54;;;;;;;15.70;2.15;;;9.60;99.90;;;;;;4984866;28;20087;-70
2022/12/29 05:12:20;;;;;;;12.85;1.90;;;9.60;99.90;;;;;;4980321;28;20041;-71
2022/12/29 05:14:45;;;;;;;11.38;2.25;;;9.60;99.90;;;;;;4979072;28;20038;-72
2022/12/29 05:17:11;;;;;;;13.20;2.10;;;9.50;99.90;;;;;;4984313;28;20046;-66
2022/12/29 05:19:38;;;;;;;12.70;2.15;;;9.50;99.90;;;;;;4984727;28;20050;-68
2022/12/29 05:22:04;;;;;;;10.50;2.00;;;9.50;99.90;;;;;;4967440;28;20041;-68
2022/12/29 05:24:29;;;;;;;12.35;2.45;;;9.40;99.90;;;;;;4982173;28;20046;-66
2022/12/29 05:26:55;;;;;;;13.10;2.40;;;9.40;99.90;;;;;;4983913;28;20389;-69
2022/12/29 05:29:21;;;;;;;12.25;2.22;;;9.40;99.90;;;;;;4986592;28;20080;-70
2022/12/29 05:31:46;;;;;;;7.85;2.53;;;9.30;99.90;;;;;;4980669;28;20051;-67
2022/12/29 05:34:12;;;;;;;10.93;2.25;;;9.30;99.90;;;;;;4985858;28;20037;-69
2022/12/29 05:36:39;;;;;;;9.85;2.85;;;9.30;99.90;;;;;;4982657;28;20037;-67
2022/12/29 05:39:04;;;;;;;12.55;3.05;;;9.30;99.90;;;;;;4999630;28;20088;-67
2022/12/29 05:41:30;;;;;;;11.40;2.95;;;9.30;99.90;;;;;;4980500;28;20073;-68
2022/12/29 05:43:56;;;;;;;13.07;2.85;;;9.30;99.90;;;;;;4983603;28;20044;-67
2022/12/29 05:46:21;;;;;;;10.57;3.55;;;9.40;99.90;;;;;;4985581;28;20038;-67
2022/12/29 05:48:47;;;;;;;15.73;2.65;;;9.40;99.90;;;;;;4979591;28;21371;-68
2022/12/29 05:51:12;;;;;;;14.00;3.08;;;9.40;99.90;;;;;;4987785;28;20100;-71
2022/12/29 05:53:38;;;;;;;11.85;2.80;;;9.40;99.90;;;;;;4987013;28;20045;-66
2022/12/29 05:56:04;;;;;;;10.52;2.67;;;9.40;99.90;;;;;;4987629;28;20034;-68
2022/12/29 05:58:29;;;;;;;14.93;2.80;;;9.40;99.90;;;;;;4986693;28;20042;-66
2022/12/29 06:00:55;;;;;;;16.70;2.40;;;9.30;99.90;;;;;;4988890;28;20034;-66
2022/12/29 06:03:20;;;;;;;15.77;2.70;;;9.40;99.90;;;;;;5000787;28;20080;-66
2022/12/29 06:05:46;;;;;;;12.40;2.08;;;9.40;99.90;;;;;;4983280;28;20096;-68
2022/12/29 06:08:12;;;;;;;15.50;2.58;;;9.30;99.90;;;;;;4983368;28;20128;-67
2022/12/29 06:10:38;;;;;;;15.45;2.65;;;9.30;99.90;;;;;;5004682;28;20049;-67
2022/12/29 06:13:05;;;;;;;9.57;1.95;;;9.30;99.90;;;;;;4986699;28;20474;-70
2022/12/29 06:15:31;;;;;;;15.15;2.17;;;9.30;99.90;;;;;;4987019;28;20048;-67
2022/12/29 06:17:57;;;;;;;14.40;2.17;;;9.30;99.90;;;;;;4970418;28;20549;-66
2022/12/29 06:20:23;;;;;;;13.82;1.85;;;9.40;99.90;;;;;;4986808;28;20041;-66
2022/12/29 06:22:49;;;;;;;17.60;2.65;;;9.40;99.90;;;;;;4986954;28;20042;-65
2022/12/29 06:25:15;;;;;;;11.32;2.58;;;9.50;99.90;;;;;;4988163;28;20136;-71
2022/12/29 06:27:40;;;;;;;17.63;2.50;;;9.50;99.90;;;;;;4985337;28;20034;-67
2022/12/29 06:30:07;;;;;;;10.90;1.88;;;9.50;99.90;;;;;;4989856;28;20041;-68
2022/12/29 06:32:33;;;;;;;14.75;2.50;;;9.40;99.90;;;;;;4984425;28;20040;-74
2022/12/29 06:34:59;;;;;;;14.95;2.47;;;9.40;99.90;;;;;;4986664;28;20045;-67
2022/12/29 06:37:24;;;;;;;17.48;2.50;;;9.30;99.90;;;;;;4982970;28;20056;-66
2022/12/29 06:39:50;;;;;;;24.98;2.70;;;9.30;99.90;;;;;;4986716;28;20485;-65
2022/12/29 06:42:16;;;;;;;15.45;2.75;;;9.30;99.90;;;;;;4982096;28;20124;-69
2022/12/29 06:44:41;;;;;;;17.60;2.47;;;9.30;99.90;;;;;;4983376;28;20040;-69
2022/12/29 06:47:07;;;;;;;15.23;2.92;;;9.30;99.90;;;;;;4983205;28;20408;-64
2022/12/29 06:49:32;;;;;;;16.90;2.58;;;9.40;99.90;;;;;;4986036;28;20128;-71
2022/12/29 06:52:00;;;;;;;14.43;2.55;;;9.40;99.90;;;;;;5000640;28;20041;-69
2022/12/29 06:54:26;;;;;;;15.85;2.40;;;9.40;99.90;;;;;;4985896;28;20041;-68
2022/12/29 06:56:51;;;;;;;21.20;2.40;;;9.50;99.90;;;;;;5002549;28;20400;-69
2022/12/29 06:59:17;;;;;;;20.13;3.58;;;9.50;99.90;;;;;;4999811;28;20042;-66
2022/12/29 07:01:43;;;;;;;16.27;2.30;;;9.50;99.90;;;;;;4986131;28;20038;-69
2022/12/29 07:04:08;;;;;;;19.05;2.40;;;9.50;99.90;;;;;;4983157;28;20078;-72
2022/12/29 07:06:34;;;;;;;17.15;2.30;;;9.50;99.90;;;;;;4985487;28;20419;-70
2022/12/29 07:09:00;;;;;;;22.80;2.70;;;9.50;99.90;;;;;;4968872;28;20045;-65
2022/12/29 07:11:25;;;;;;;18.42;2.13;;;9.50;99.90;;;;;;4981755;28;20046;-67
2022/12/29 07:13:51;;;;;;;33.65;3.17;;;9.40;99.90;;;;;;5002492;28;20489;-65
2022/12/29 07:16:17;;;;;;;19.88;2.63;;;9.50;99.90;;;;;;4990755;28;20061;-65
2022/12/29 07:18:43;;;;;;;20.48;2.78;;;9.40;99.90;;;;;;4989630;28;20042;-68
2022/12/29 07:21:09;;;;;;;17.55;2.83;;;9.40;99.90;;;;;;4985218;28;20535;-64
2022/12/29 07:23:34;;;;;;;18.52;2.40;;;9.40;99.90;;;;;;4988139;28;20473;-67
2022/12/29 07:26:02;;;;;;;19.85;2.85;;;9.30;99.90;;;;;;4986529;28;20048;-66
2022/12/29 07:28:28;;;;;;;18.00;2.78;;;9.40;99.90;;;;;;4980021;28;20045;-65
2022/12/29 07:30:54;;;;;;;14.35;2.10;;;9.30;99.90;;;;;;4967619;28;20038;-66
2022/12/29 07:33:19;;;;;;;17.40;2.40;;;9.30;99.90;;;;;;4983573;28;20050;-69
2022/12/29 07:35:45;;;;;;;24.55;2.70;;;9.30;99.90;;;;;;4973677;28;20044;-65
2022/12/29 07:38:11;;;;;;;21.50;2.90;;;9.30;99.90;;;;;;4988617;28;20041;-71
2022/12/29 07:40:36;;;;;;;19.30;2.28;;;9.30;99.90;;;;;;4991576;28;20045;-70
2022/12/29 07:43:02;;;;;;;10.98;2.47;;;9.30;99.90;;;;;;4974933;28;20537;-73
2022/12/29 07:45:27;;;;;;;19.52;2.45;;;9.30;99.90;;;;;;4990548;28;20065;-69
2022/12/29 07:47:53;;;;;;;17.73;2.67;;;9.30;99.90;;;;;;4992642;28;20487;-68
2022/12/29 07:50:19;;;;;;;16.45;2.55;;;9.30;99.90;;;;;;4993470;28;20477;-65
2022/12/29 07:52:45;;;;;;;21.73;2.00;;;9.30;99.90;;;;;;4992413;28;20080;-67
2022/12/29 07:55:11;;;;;;;16.50;2.50;;;9.30;99.90;;;;;;4990705;28;20053;-67
2022/12/29 07:57:37;;;;;;;21.30;2.95;;;9.30;99.90;;;;;;4982788;28;20517;-67
2022/12/29 08:00:03;;;;;;;20.05;2.40;;;9.20;99.90;;;;;;4987539;28;20042;-65
2022/12/29 08:02:29;;;;;;;27.73;2.78;;;9.30;99.90;;;;;;4968819;28;20509;-66
2022/12/29 08:04:55;;;;;;;23.95;3.08;;;9.20;99.90;;;;;;4987479;28;20087;-65
2022/12/29 08:07:20;;;;;;;23.60;4.00;;;9.20;99.90;;;;;;4989258;28;20061;-65
2022/12/29 08:09:46;;;;;;;24.48;3.67;;;9.20;99.90;;;;;;4986441;28;20132;-69
2022/12/29 08:12:11;;;;;;;25.17;3.67;;;9.20;99.90;;;;;;4984952;28;20045;-65
2022/12/29 08:14:37;;;;;;;25.23;3.15;;;9.30;99.90;;;;;;4986966;28;20073;-67
2022/12/29 08:17:03;;;;;;;19.88;3.05;;;9.30;99.90;;;;;;5003889;28;20034;-67
2022/12/29 08:19:28;;;;;;;25.50;3.20;;;9.30;99.90;;;;;;4988776;28;20046;-70
2022/12/29 08:21:54;;;;;;;24.23;3.28;;;9.30;99.90;;;;;;4986327;28;20044;-67
2022/12/29 08:24:19;;;;;;;20.88;3.10;;;9.30;99.90;;;;;;4983682;28;20365;-67
2022/12/29 08:26:45;;;;;;;28.85;3.72;;;9.30;99.90;;;;;;4985372;28;20375;-67
2022/12/29 08:29:11;;;;;;;22.10;2.80;;;9.30;99.90;;;;;;4985376;28;20096;-64
2022/12/29 08:31:37;;;;;;;23.17;3.30;;;9.30;99.90;;;;;;4988219;28;20049;-66
2022/12/29 08:34:03;;;;;;;24.10;3.60;;;9.30;99.90;;;;;;4985973;28;20049;-68
2022/12/29 08:36:30;;;;;;;17.33;2.85;;;9.30;99.90;;;;;;4987871;28;20034;-65
2022/12/29 08:38:56;;;;;;;19.65;2.60;;;9.40;99.90;;;;;;4989418;28;20046;-66
2022/12/29 08:41:21;;;;;;;21.40;3.60;;;9.40;99.90;;;;;;4985353;28;20439;-68
2022/12/29 08:43:48;;;;;;;25.42;2.72;;;9.40;99.90;;;;;;4988636;28;20045;-67
2022/12/29 08:46:14;;;;;;;24.25;2.83;;;9.40;99.90;;;;;;4990213;28;20070;-67
2022/12/29 08:48:40;;;;;;;21.55;2.70;;;9.40;99.90;;;;;;4989103;28;20122;-70
2022/12/29 08:51:05;;;;;;;16.83;2.45;;;9.40;99.90;;;;;;4990032;28;20149;-67
2022/12/29 08:53:31;;;;;;;22.52;2.90;;;9.40;99.90;;;;;;5002823;28;20053;-63
2022/12/29 08:55:59;;;;;;;19.02;2.65;;;9.40;99.90;;;;;;4988793;28;20060;-69
2022/12/29 08:58:25;;;;;;;18.33;2.85;;;9.40;99.90;;;;;;5004129;28;20038;-67
2022/12/29 09:00:55;;;;;;;18.30;2.95;;;9.40;99.90;;;;;;4986286;28;20050;-67
2022/12/29 09:03:21;;;;;;;22.15;3.00;;;9.40;99.90;;;;;;4990299;28;20041;-67
2022/12/29 09:05:49;;;;;;;22.75;3.13;;;9.40;99.90;;;;;;4990448;28;20070;-68
2022/12/29 09:08:15;;;;;;;28.40;3.80;;;9.40;99.90;;;;;;4989143;28;20396;-65
2022/12/29 09:10:41;;;;;;;20.58;3.20;;;9.30;99.90;;;;;;4991697;28;20484;-68
2022/12/29 09:13:06;;;;;;;19.58;4.10;;;9.30;99.90;;;;;;4987377;28;20042;-68
2022/12/29 09:15:32;;;;;;;29.13;3.80;;;9.30;99.90;;;;;;4987710;28;20044;-66
2022/12/29 09:17:57;;;;;;;24.65;3.20;;;9.30;99.90;;;;;;4990478;28;20385;-68
2022/12/29 09:20:23;;;;;;;27.67;3.30;;;9.20;99.90;;;;;;4991188;28;20121;-66
2022/12/29 09:22:49;;;;;;;24.70;2.72;;;9.20;99.90;;;;;;4989119;28;20037;-69
2022/12/29 09:25:15;;;;;;;22.02;3.13;;;9.20;99.90;;;;;;4990784;28;20037;-67
2022/12/29 09:27:40;;;;;;;22.83;2.85;;;9.20;99.90;;;;;;5007411;28;20042;-67
2022/12/29 09:30:09;;;;;;;27.17;2.95;;;9.10;99.90;;;;;;5001085;28;20543;-67
2022/12/29 09:32:35;;;;;;;21.83;2.47;;;9.20;99.90;;;;;;4990512;28;20084;-67
2022/12/29 09:35:01;;;;;;;22.50;3.05;;;9.10;99.90;;;;;;5006559;28;20072;-68
2022/12/29 09:37:26;;;;;;;22.48;3.40;;;9.20;99.90;;;;;;4990893;28;20482;-65
2022/12/29 09:39:52;;;;;;;24.17;3.25;;;9.20;99.90;;;;;;4988211;28;20052;-68
2022/12/29 09:42:43;;;;;;;17.98;3.20;;;9.10;99.90;;;;;;4990718;28;20038;-65
2022/12/29 09:45:22;;;;;;;19.58;2.92;;;9.10;99.90;;;;;;4987226;28;20034;-67
2022/12/29 09:47:47;;;;;;;15.05;2.63;;;9.10;99.90;;;;;;5006202;28;20046;-68
2022/12/29 09:50:36;;;;;;;20.63;3.47;;;9.10;99.90;;;;;;4994639;28;20042;-68
2022/12/29 09:53:18;;;;;;;23.48;2.90;;;9.10;99.90;;;;;;4992321;28;20069;-66
2022/12/29 09:55:50;;;;;;;26.05;3.53;;;9.10;99.90;;;;;;4994899;28;20596;-68
2022/12/29 09:58:25;;;;;;;21.85;3.30;;;9.10;99.90;;;;;;4992954;28;20042;-64
2022/12/29 10:01:15;;;;;;;16.42;3.03;;;9.10;99.90;;;;;;4993786;28;20042;-69
2022/12/29 10:03:55;;;;;;;17.90;2.67;;;9.10;99.90;;;;;;4989408;28;20046;-69
2022/12/29 10:06:33;;;;;;;23.77;3.40;;;9.10;99.90;;;;;;4991802;28;20400;-67
2022/12/29 10:09:04;;;;;;;25.02;3.50;;;9.20;99.90;;;;;;4992733;28;20077;-67
2022/12/29 10:12:04;;;;;;;21.67;3.38;;;9.10;99.90;;;;;;4993089;28;20050;-62
2022/12/29 10:15:06;;;;;;;23.25;3.45;;;9.20;99.90;;;;;;4994250;28;20481;-67
2022/12/29 10:17:46;;;;;;;22.95;3.13;;;9.30;99.90;;;;;;4996270;28;20064;-68
2022/12/29 10:20:20;;;;;;;17.77;3.10;;;9.30;99.90;;;;;;5010387;28;20049;-66
2022/12/29 10:22:55;;;;;;;21.60;3.25;;;9.30;99.90;;;;;;4988338;28;20612;-66
2022/12/29 10:25:24;;;;;;;17.63;2.90;;;9.20;99.90;;;;;;4985708;28;20025;-69
2022/12/29 10:27:53;;;;;;;22.90;3.00;;;9.20;99.90;;;;;;4990345;28;20054;-67
2022/12/29 10:30:19;;;;;;;19.95;3.10;;;9.10;99.90;;;;;;5008347;28;20058;-69
2022/12/29 10:33:02;;;;;;;17.67;3.35;;;9.10;99.90;;;;;;4991484;28;20741;-71
2022/12/29 10:35:40;;;;;;;25.73;3.50;;;9.10;99.90;;;;;;4987473;28;20502;-68
2022/12/29 10:38:30;;;;;;;26.85;3.20;;;9.10;99.90;;;;;;4991294;28;20634;-67
2022/12/29 10:41:22;;;;;;;14.13;2.95;;;9.10;99.90;;;;;;5004096;28;20069;-65
2022/12/29 10:43:51;;;;;;;17.42;3.20;;;9.10;99.90;;;;;;4996694;28;20037;-70
2022/12/29 10:46:20;;;;;;;24.75;3.22;;;9.10;99.90;;;;;;4993484;28;20369;-66
2022/12/29 10:48:47;;;;;;;14.18;3.08;;;9.20;99.90;;;;;;5006756;28;20058;-67
2022/12/29 10:51:30;;;;;;;24.70;3.25;;;9.20;99.90;;;;;;4989059;28;20052;-70
2022/12/29 10:54:03;;;;;;;11.55;2.72;;;9.30;99.90;;;;;;4990759;28;20080;-66
2022/12/29 10:56:46;;;;;;;20.80;2.85;;;9.40;99.90;;;;;;4993335;28;20053;-67
2022/12/29 10:59:17;;;;;;;18.50;3.28;;;9.30;99.90;;;;;;4991357;28;20132;-66
2022/12/29 11:02:06;;;;;;;17.27;2.95;;;9.30;99.90;;;;;;4983805;28;20129;-68
2022/12/29 11:04:35;;;;;;;21.70;3.20;;;9.20;99.90;;;;;;4987444;28;20045;-70
2022/12/29 11:07:01;;;;;;;21.48;3.55;;;9.20;99.90;;;;;;4991920;28;20041;-65
2022/12/29 11:09:34;;;;;;;14.75;3.75;;;9.10;99.90;;;;;;4990690;28;20034;-69
2022/12/29 11:12:00;;;;;;;20.20;3.83;;;9.10;99.90;;;;;;4990960;28;20046;-66
2022/12/29 11:14:30;;;;;;;19.70;3.78;;;9.10;99.90;;;;;;4989401;28;20053;-66
2022/12/29 11:16:57;;;;;;;16.52;4.18;;;9.10;99.90;;;;;;4989477;28;20049;-69
2022/12/29 11:19:26;;;;;;;26.38;3.88;;;9.10;99.90;;;;;;4990507;28;20492;-71
2022/12/29 11:21:53;;;;;;;20.05;4.43;;;9.20;99.90;;;;;;4990141;28;20048;-68
2022/12/29 11:24:25;;;;;;;22.75;4.82;;;9.20;99.90;;;;;;5004026;28;20060;-66
2022/12/29 11:27:08;;;;;;;23.05;4.78;;;9.10;99.90;;;;;;4990168;28;20096;-70
2022/12/29 11:29:38;;;;;;;29.45;5.78;;;9.20;99.90;;;;;;4989341;28;20104;-68
2022/12/29 11:32:26;;;;;;;30.52;5.15;;;9.30;99.90;;;;;;4990136;28;20121;-68
2022/12/29 11:34:51;;;;;;;23.33;5.07;;;9.20;99.90;;;;;;5004635;28;20049;-69
2022/12/29 11:37:34;;;;;;;20.38;4.68;;;9.20;99.90;;;;;;4989696;28;20041;-67
2022/12/29 11:40:19;;;;;;;29.35;4.95;;;9.10;99.90;;;;;;4987631;28;20046;-65
2022/12/29 11:42:56;;;;;;;34.25;6.38;;;9.20;99.90;;;;;;5005741;28;20041;-69
2022/12/29 11:45:23;;;;;;;24.35;4.63;;;9.20;99.90;;;;;;4988956;28;20590;-67
2022/12/29 11:47:54;;;;;;;23.55;4.80;;;9.10;99.90;;;;;;4990544;28;20038;-67
2022/12/29 11:50:32;;;;;;;26.33;5.13;;;9.10;99.90;;;;;;5006365;28;20042;-69
2022/12/29 11:53:05;;;;;;;25.17;4.72;;;9.10;99.90;;;;;;4990277;28;20041;-70
2022/12/29 11:55:32;;;;;;;32.78;5.47;;;9.20;99.90;;;;;;4990651;28;20993;-71
2022/12/29 11:58:01;;;;;;;30.13;4.65;;;9.20;99.90;;;;;;4981642;28;20045;-67
2022/12/29 12:00:29;;;;;;;33.83;4.72;;;9.10;99.90;;;;;;5003188;28;20077;-67
2022/12/29 12:02:59;;;;;;;28.23;5.55;;;9.30;99.90;;;;;;4982905;28;20045;-68
2022/12/29 12:05:30;;;;;;;29.75;4.95;;;9.30;99.90;;;;;;4986959;28;20463;-67
2022/12/29 12:08:08;;;;;;;38.42;5.90;;;9.30;99.90;;;;;;4983222;28;20049;-64
2022/12/29 12:10:46;;;;;;;39.72;5.25;;;9.30;99.90;;;;;;4978807;28;20065;-66
2022/12/29 12:13:25;;;;;;;29.10;4.80;;;9.30;99.90;;;;;;4964791;28;20124;-66
2022/12/29 12:16:22;;;;;;;35.72;5.32;;;9.30;99.90;;;;;;4990742;28;20038;-67
2022/12/29 12:19:04;;;;;;;32.13;5.25;;;9.30;99.90;;;;;;4952000;28;20104;-67
2022/12/29 12:21:37;;;;;;;33.20;5.70;;;9.30;99.90;;;;;;4982181;28;20029;-68
2022/12/29 12:24:28;;;;;;;31.02;5.25;;;9.30;99.90;;;;;;4986798;28;20045;-69
2022/12/29 12:27:14;;;;;;;31.42;6.03;;;9.20;99.90;;;;;;4997261;28;20034;-66
2022/12/29 12:29:56;;;;;;;29.50;4.93;;;9.20;99.90;;;;;;5003909;28;20053;-68
2022/12/29 12:32:37;;;;;;;35.17;5.13;;;9.20;99.90;;;;;;4988149;28;20405;-69
2022/12/29 12:35:04;;;;;;;29.17;5.25;;;9.10;99.90;;;;;;4993094;28;20049;-68
2022/12/29 12:37:32;;;;;;;36.13;6.07;;;9.20;99.90;;;;;;4988085;28;20437;-66
2022/12/29 12:40:24;;;;;;;30.42;5.35;;;9.20;99.90;;;;;;4991980;28;20054;-69
2022/12/29 12:43:27;;;;;;;29.75;4.90;;;9.30;99.90;;;;;;4985432;28;20050;-68
2022/12/29 12:45:59;;;;;;;;;;;9.40;99.90;;;;;;4986042;28;20408;-69
2022/12/29 12:48:48;;;;;;;21.52;3.40;;;9.50;99.90;;;;;;4981344;28;20387;-70
2022/12/29 12:51:57;;;;;;;37.38;5.78;;;9.60;99.90;;;;;;4985915;28;20038;-67
2022/12/29 12:54:47;;;;;;;29.98;4.25;;;9.50;99.90;;;;;;4989125;28;20048;-68
2022/12/29 12:57:36;;;;;;;34.35;4.72;;;9.40;99.90;;;;;;4999107;28;20340;-70
2022/12/29 13:00:13;;;;;;;32.33;5.10;;;9.40;99.90;;;;;;4989703;28;20466;-66
2022/12/29 13:02:53;;;;;;;32.20;4.07;;;9.30;99.90;;;;;;4995408;28;20488;-67
2022/12/29 13:05:40;;;;;;;29.77;3.17;;;9.30;99.90;;;;;;4993093;28;20156;-68
2022/12/29 13:08:27;;;;;;;22.23;3.88;;;9.30;99.90;;;;;;4993137;28;20042;-65
2022/12/29 13:11:10;;;;;;;32.45;4.03;;;9.30;99.90;;;;;;4991070;28;20845;-68
2022/12/29 13:13:38;;;;;;;25.10;3.33;;;9.40;99.90;;;;;;4989304;28;20092;-69
2022/12/29 13:16:13;;;;;;;28.63;3.92;;;9.50;99.90;;;;;;4992536;28;20388;-67
2022/12/29 13:19:13;;;;;;;31.02;4.20;;;9.70;99.90;;;;;;5008027;28;20053;-69
2022/12/29 13:21:53;;;;;;;33.03;4.38;;;9.70;99.90;;;;;;4982612;28;20050;-67
2022/12/29 13:24:19;;;;;;;30.98;4.50;;;9.70;99.90;;;;;;4996017;28;20056;-67
2022/12/29 13:26:50;;;;;;;25.85;3.03;;;9.70;99.90;;;;;;4989905;28;20045;-68
2022/12/29 13:29:35;;;;;;;27.08;4.30;;;9.60;99.90;;;;;;4991619;28;20177;-68
2022/12/29 13:32:00;;;;;;;37.00;3.58;;;9.60;99.90;;;;;;4990986;28;20103;-67
2022/12/29 13:34:39;;;;;;;30.45;4.53;;;9.50;99.90;;;;;;5001476;28;20046;-66
2022/12/29 13:37:13;;;;;;;28.42;4.25;;;9.50;99.90;;;;;;4988014;28;20121;-69
2022/12/29 13:40:04;;;;;;;29.20;3.40;;;9.40;99.90;;;;;;4994580;28;20117;-69
2022/12/29 13:42:31;;;;;;;32.47;4.30;;;9.40;99.90;;;;;;4986790;28;20415;-68